sensor_id;sensor_type;location;lat;lon;timestamp;temperature;humidity
10660;DHT22;5378;53.206;13.316;2022-09-09T00:00:54;15.70;99.90
10660;DHT22;5378;53.206;13.316;2022-09-09T00:03:53;15.60;99.90
10660;DHT22;5378;53.206;13.316;2022-09-09T00:06:46;15.70;99.90
10660;DHT22;5378;53.206;13.316;2022-09-09T00:09:42;15.70;99.90
10660;DHT22;5378;53.206;13.316;2022-09-09T00:12:36;15.70;99.90
10660;DHT22;5378;53.206;13.316;2022-09-09T00:15:29;15.60;99.90
10660;DHT22;5378;53.206;13.316;2022-09-09T00:18:24;15.60;99.90
10660;DHT22;5378;53.206;13.316;2022-09-09T00:21:16;15.50;99.90
10660;DHT22;5378;53.206;13.316;2022-09-09T00:24:11;15.70;99.90
10660;DHT22;5378;53.206;13.316;2022-09-09T00:27:04;15.70;99.90
10660;DHT22;5378;53.206;13.316;2022-09-09T00:29:56;15.70;99.90
10660;DHT22;5378;53.206;13.316;2022-09-09T00:32:45;15.60;99.90
10660;DHT22;5378;53.206;13.316;2022-09-09T00:35:35;15.70;99.90
10660;DHT22;5378;53.206;13.316;2022-09-09T00:38:27;15.70;99.90
10660;DHT22;5378;53.206;13.316;2022-09-09T00:41:20;15.60;99.90
10660;DHT22;5378;53.206;13.316;2022-09-09T00:44:19;15.60;99.90
10660;DHT22;5378;53.206;13.316;2022-09-09T00:47:16;15.60;99.90
10660;DHT22;5378;53.206;13.316;2022-09-09T00:50:25;15.60;99.90
10660;DHT22;5378;53.206;13.316;2022-09-09T00:53:27;15.70;99.90
10660;DHT22;5378;53.206;13.316;2022-09-09T00:56:19;15.80;99.90
10660;DHT22;5378;53.206;13.316;2022-09-09T00:59:15;15.80;99.90
10660;DHT22;5378;53.206;13.316;2022-09-09T01:02:16;15.90;99.90
10660;DHT22;5378;53.206;13.316;2022-09-09T01:05:08;15.90;99.90
10660;DHT22;5378;53.206;13.316;2022-09-09T01:07:58;15.90;99.90
10660;DHT22;5378;53.206;13.316;2022-09-09T01:10:51;16.00;99.90
10660;DHT22;5378;53.206;13.316;2022-09-09T01:13:45;16.10;99.90
10660;DHT22;5378;53.206;13.316;2022-09-09T01:16:34;16.10;99.90
10660;DHT22;5378;53.206;13.316;2022-09-09T01:19:31;16.10;99.90
10660;DHT22;5378;53.206;13.316;2022-09-09T01:22:33;16.10;99.90
10660;DHT22;5378;53.206;13.316;2022-09-09T01:28:46;16.00;99.90
10660;DHT22;5378;53.206;13.316;2022-09-09T01:31:38;16.10;99.90
10660;DHT22;5378;53.206;13.316;2022-09-09T01:34:31;16.10;99.90
10660;DHT22;5378;53.206;13.316;2022-09-09T01:37:20;16.60;99.90
10660;DHT22;5378;53.206;13.316;2022-09-09T01:40:08;16.20;99.90
10660;DHT22;5378;53.206;13.316;2022-09-09T01:42:56;16.20;99.90
10660;DHT22;5378;53.206;13.316;2022-09-09T01:45:47;16.20;99.90
10660;DHT22;5378;53.206;13.316;2022-09-09T01:48:36;16.20;99.90
10660;DHT22;5378;53.206;13.316;2022-09-09T01:51:27;16.20;99.90
10660;DHT22;5378;53.206;13.316;2022-09-09T01:54:16;16.20;99.90
10660;DHT22;5378;53.206;13.316;2022-09-09T01:57:10;16.20;99.90
10660;DHT22;5378;53.206;13.316;2022-09-09T02:00:05;16.10;99.90
10660;DHT22;5378;53.206;13.316;2022-09-09T02:03:06;16.10;99.90
10660;DHT22;5378;53.206;13.316;2022-09-09T02:06:13;16.20;99.90
10660;DHT22;5378;53.206;13.316;2022-09-09T02:09:05;16.10;99.90
10660;DHT22;5378;53.206;13.316;2022-09-09T02:11:57;16.10;99.90
10660;DHT22;5378;53.206;13.316;2022-09-09T02:14:57;16.00;99.90
10660;DHT22;5378;53.206;13.316;2022-09-09T02:17:57;16.10;99.90
10660;DHT22;5378;53.206;13.316;2022-09-09T02:20:47;16.10;99.90
10660;DHT22;5378;53.206;13.316;2022-09-09T02:23:35;16.10;99.90
10660;DHT22;5378;53.206;13.316;2022-09-09T02:26:26;16.20;99.90
10660;DHT22;5378;53.206;13.316;2022-09-09T02:29:24;13.60;99.90
10660;DHT22;5378;53.206;13.316;2022-09-09T02:32:15;16.30;99.90
10660;DHT22;5378;53.206;13.316;2022-09-09T02:35:08;16.30;99.90
10660;DHT22;5378;53.206;13.316;2022-09-09T02:38:01;16.30;99.90
10660;DHT22;5378;53.206;13.316;2022-09-09T02:40:50;16.30;99.90
10660;DHT22;5378;53.206;13.316;2022-09-09T02:43:38;16.40;99.90
10660;DHT22;5378;53.206;13.316;2022-09-09T02:46:52;16.40;99.90
10660;DHT22;5378;53.206;13.316;2022-09-09T02:49:51;16.40;99.90
10660;DHT22;5378;53.206;13.316;2022-09-09T02:52:50;16.40;99.90
10660;DHT22;5378;53.206;13.316;2022-09-09T02:55:48;16.40;99.90
10660;DHT22;5378;53.206;13.316;2022-09-09T02:58:38;16.40;99.90
10660;DHT22;5378;53.206;13.316;2022-09-09T03:01:26;16.40;99.90
10660;DHT22;5378;53.206;13.316;2022-09-09T03:04:13;16.40;99.90
10660;DHT22;5378;53.206;13.316;2022-09-09T03:07:00;16.50;99.90
10660;DHT22;5378;53.206;13.316;2022-09-09T03:09:49;16.40;99.90
10660;DHT22;5378;53.206;13.316;2022-09-09T03:12:38;16.50;99.90
10660;DHT22;5378;53.206;13.316;2022-09-09T03:15:25;16.50;99.90
10660;DHT22;5378;53.206;13.316;2022-09-09T03:18:15;16.50;99.90
10660;DHT22;5378;53.206;13.316;2022-09-09T03:21:06;16.60;99.90
10660;DHT22;5378;53.206;13.316;2022-09-09T03:23:56;16.60;99.90
10660;DHT22;5378;53.206;13.316;2022-09-09T03:26:43;16.60;99.90
10660;DHT22;5378;53.206;13.316;2022-09-09T03:29:35;16.60;99.90
10660;DHT22;5378;53.206;13.316;2022-09-09T03:32:26;16.50;99.90
10660;DHT22;5378;53.206;13.316;2022-09-09T03:35:15;16.50;99.90
10660;DHT22;5378;53.206;13.316;2022-09-09T03:38:02;16.60;99.90
10660;DHT22;5378;53.206;13.316;2022-09-09T03:40:53;16.60;99.90
10660;DHT22;5378;53.206;13.316;2022-09-09T03:43:41;16.60;99.90
10660;DHT22;5378;53.206;13.316;2022-09-09T03:46:30;16.60;99.90
10660;DHT22;5378;53.206;13.316;2022-09-09T03:49:18;16.50;99.90
10660;DHT22;5378;53.206;13.316;2022-09-09T03:52:07;16.50;99.90
10660;DHT22;5378;53.206;13.316;2022-09-09T03:54:54;16.50;99.90
10660;DHT22;5378;53.206;13.316;2022-09-09T03:57:42;16.40;99.90
10660;DHT22;5378;53.206;13.316;2022-09-09T04:00:30;16.40;99.90
10660;DHT22;5378;53.206;13.316;2022-09-09T04:03:19;16.40;99.90
10660;DHT22;5378;53.206;13.316;2022-09-09T04:06:09;16.40;99.90
10660;DHT22;5378;53.206;13.316;2022-09-09T04:08:59;16.40;99.90
10660;DHT22;5378;53.206;13.316;2022-09-09T04:11:49;16.40;99.90
10660;DHT22;5378;53.206;13.316;2022-09-09T04:14:37;16.40;99.90
10660;DHT22;5378;53.206;13.316;2022-09-09T04:17:25;16.50;99.90
10660;DHT22;5378;53.206;13.316;2022-09-09T04:20:14;16.40;99.90
10660;DHT22;5378;53.206;13.316;2022-09-09T04:23:01;16.40;99.90
10660;DHT22;5378;53.206;13.316;2022-09-09T04:25:49;16.50;99.90
10660;DHT22;5378;53.206;13.316;2022-09-09T04:28:37;16.40;99.90
10660;DHT22;5378;53.206;13.316;2022-09-09T04:31:30;16.40;99.90
10660;DHT22;5378;53.206;13.316;2022-09-09T04:34:18;16.40;99.90
10660;DHT22;5378;53.206;13.316;2022-09-09T04:37:06;16.30;99.90
10660;DHT22;5378;53.206;13.316;2022-09-09T04:39:53;16.30;99.90
10660;DHT22;5378;53.206;13.316;2022-09-09T04:42:40;16.20;99.90
10660;DHT22;5378;53.206;13.316;2022-09-09T04:45:31;16.20;99.90
10660;DHT22;5378;53.206;13.316;2022-09-09T04:48:20;16.30;99.90
10660;DHT22;5378;53.206;13.316;2022-09-09T04:51:11;16.40;99.90
10660;DHT22;5378;53.206;13.316;2022-09-09T04:54:00;16.30;99.90
10660;DHT22;5378;53.206;13.316;2022-09-09T04:56:47;16.30;99.90
10660;DHT22;5378;53.206;13.316;2022-09-09T04:59:38;16.30;99.90
10660;DHT22;5378;53.206;13.316;2022-09-09T05:02:25;16.30;99.90
10660;DHT22;5378;53.206;13.316;2022-09-09T05:05:16;16.30;99.90
10660;DHT22;5378;53.206;13.316;2022-09-09T05:08:08;16.20;99.90
10660;DHT22;5378;53.206;13.316;2022-09-09T05:10:57;16.30;99.90
10660;DHT22;5378;53.206;13.316;2022-09-09T05:13:46;16.30;99.90
10660;DHT22;5378;53.206;13.316;2022-09-09T05:16:33;16.40;99.90
10660;DHT22;5378;53.206;13.316;2022-09-09T05:19:20;16.40;99.90
10660;DHT22;5378;53.206;13.316;2022-09-09T05:22:07;16.40;99.90
10660;DHT22;5378;53.206;13.316;2022-09-09T05:25:01;16.40;99.90
10660;DHT22;5378;53.206;13.316;2022-09-09T05:27:50;16.50;99.90
10660;DHT22;5378;53.206;13.316;2022-09-09T05:30:37;16.50;99.90
10660;DHT22;5378;53.206;13.316;2022-09-09T05:33:25;16.70;99.90
10660;DHT22;5378;53.206;13.316;2022-09-09T05:36:13;16.80;99.90
10660;DHT22;5378;53.206;13.316;2022-09-09T05:39:01;16.80;99.90
10660;DHT22;5378;53.206;13.316;2022-09-09T05:41:50;16.70;99.90
10660;DHT22;5378;53.206;13.316;2022-09-09T05:44:39;16.70;99.90
10660;DHT22;5378;53.206;13.316;2022-09-09T05:47:28;16.90;99.90
10660;DHT22;5378;53.206;13.316;2022-09-09T05:50:16;17.10;99.90
10660;DHT22;5378;53.206;13.316;2022-09-09T05:53:03;17.10;99.90
10660;DHT22;5378;53.206;13.316;2022-09-09T05:55:50;17.00;99.90
10660;DHT22;5378;53.206;13.316;2022-09-09T05:58:38;17.00;99.90
10660;DHT22;5378;53.206;13.316;2022-09-09T06:01:31;17.00;99.90
10660;DHT22;5378;53.206;13.316;2022-09-09T06:04:19;17.00;99.90
10660;DHT22;5378;53.206;13.316;2022-09-09T06:07:10;17.20;99.90
10660;DHT22;5378;53.206;13.316;2022-09-09T06:09:57;17.10;99.90
10660;DHT22;5378;53.206;13.316;2022-09-09T06:12:45;17.20;99.90
10660;DHT22;5378;53.206;13.316;2022-09-09T06:15:31;17.20;99.90
10660;DHT22;5378;53.206;13.316;2022-09-09T06:18:22;17.30;99.90
10660;DHT22;5378;53.206;13.316;2022-09-09T06:21:15;17.40;99.90
10660;DHT22;5378;53.206;13.316;2022-09-09T06:24:03;17.40;99.90
10660;DHT22;5378;53.206;13.316;2022-09-09T06:26:50;17.50;99.90
10660;DHT22;5378;53.206;13.316;2022-09-09T06:29:41;17.70;99.90
10660;DHT22;5378;53.206;13.316;2022-09-09T06:32:28;18.00;99.90
10660;DHT22;5378;53.206;13.316;2022-09-09T06:35:16;18.60;99.90
10660;DHT22;5378;53.206;13.316;2022-09-09T06:38:04;18.90;99.90
10660;DHT22;5378;53.206;13.316;2022-09-09T06:40:52;19.20;99.90
10660;DHT22;5378;53.206;13.316;2022-09-09T06:43:40;19.30;99.90
10660;DHT22;5378;53.206;13.316;2022-09-09T06:46:30;19.20;99.90
10660;DHT22;5378;53.206;13.316;2022-09-09T06:49:19;19.10;99.90
10660;DHT22;5378;53.206;13.316;2022-09-09T06:52:08;18.90;99.90
10660;DHT22;5378;53.206;13.316;2022-09-09T06:54:55;16.70;99.90
10660;DHT22;5378;53.206;13.316;2022-09-09T06:57:44;18.90;99.90
10660;DHT22;5378;53.206;13.316;2022-09-09T07:00:36;19.00;99.90
10660;DHT22;5378;53.206;13.316;2022-09-09T07:03:24;16.50;99.90
10660;DHT22;5378;53.206;13.316;2022-09-09T07:06:14;19.10;99.90
10660;DHT22;5378;53.206;13.316;2022-09-09T07:09:06;19.20;99.90
10660;DHT22;5378;53.206;13.316;2022-09-09T07:11:54;19.30;99.90
10660;DHT22;5378;53.206;13.316;2022-09-09T07:14:43;19.10;99.90
10660;DHT22;5378;53.206;13.316;2022-09-09T07:17:31;19.00;99.90
10660;DHT22;5378;53.206;13.316;2022-09-09T07:20:18;19.00;99.90
10660;DHT22;5378;53.206;13.316;2022-09-09T07:23:06;19.30;99.90
10660;DHT22;5378;53.206;13.316;2022-09-09T07:25:54;19.60;99.90
10660;DHT22;5378;53.206;13.316;2022-09-09T07:28:42;19.50;99.90
10660;DHT22;5378;53.206;13.316;2022-09-09T07:31:32;19.50;99.90
10660;DHT22;5378;53.206;13.316;2022-09-09T07:34:20;20.10;99.90
10660;DHT22;5378;53.206;13.316;2022-09-09T07:37:07;21.60;99.90
10660;DHT22;5378;53.206;13.316;2022-09-09T07:39:59;22.00;99.90
10660;DHT22;5378;53.206;13.316;2022-09-09T07:42:50;22.10;99.90
10660;DHT22;5378;53.206;13.316;2022-09-09T07:45:37;21.90;99.90
10660;DHT22;5378;53.206;13.316;2022-09-09T07:48:26;22.10;99.90
10660;DHT22;5378;53.206;13.316;2022-09-09T07:51:15;22.20;99.90
10660;DHT22;5378;53.206;13.316;2022-09-09T07:54:06;22.50;99.90
10660;DHT22;5378;53.206;13.316;2022-09-09T07:56:56;24.00;99.90
10660;DHT22;5378;53.206;13.316;2022-09-09T07:59:48;26.00;99.90
10660;DHT22;5378;53.206;13.316;2022-09-09T08:02:36;27.10;99.90
10660;DHT22;5378;53.206;13.316;2022-09-09T08:05:24;27.70;99.90
10660;DHT22;5378;53.206;13.316;2022-09-09T08:08:11;27.90;99.90
10660;DHT22;5378;53.206;13.316;2022-09-09T08:11:03;27.80;99.90
10660;DHT22;5378;53.206;13.316;2022-09-09T08:13:51;27.90;99.90
10660;DHT22;5378;53.206;13.316;2022-09-09T08:16:43;27.70;99.90
10660;DHT22;5378;53.206;13.316;2022-09-09T08:19:32;26.80;99.90
10660;DHT22;5378;53.206;13.316;2022-09-09T08:22:24;26.10;99.90
10660;DHT22;5378;53.206;13.316;2022-09-09T08:25:12;26.10;99.90
10660;DHT22;5378;53.206;13.316;2022-09-09T08:28:00;26.50;99.90
10660;DHT22;5378;53.206;13.316;2022-09-09T08:30:47;27.40;99.90
10660;DHT22;5378;53.206;13.316;2022-09-09T08:33:37;28.50;99.90
10660;DHT22;5378;53.206;13.316;2022-09-09T08:36:27;29.30;99.90
10660;DHT22;5378;53.206;13.316;2022-09-09T08:39:16;30.00;99.90
10660;DHT22;5378;53.206;13.316;2022-09-09T08:42:38;30.20;99.90
10660;DHT22;5378;53.206;13.316;2022-09-09T08:45:32;30.40;99.90
10660;DHT22;5378;53.206;13.316;2022-09-09T08:48:38;30.80;99.90
10660;DHT22;5378;53.206;13.316;2022-09-09T08:51:30;30.60;99.90
10660;DHT22;5378;53.206;13.316;2022-09-09T08:54:19;30.20;99.90
10660;DHT22;5378;53.206;13.316;2022-09-09T08:57:20;30.20;99.90
10660;DHT22;5378;53.206;13.316;2022-09-09T09:00:10;30.10;99.90
10660;DHT22;5378;53.206;13.316;2022-09-09T09:03:06;30.50;99.90
10660;DHT22;5378;53.206;13.316;2022-09-09T09:06:04;30.60;99.90
10660;DHT22;5378;53.206;13.316;2022-09-09T09:08:59;30.40;99.90
10660;DHT22;5378;53.206;13.316;2022-09-09T09:11:52;30.10;99.90
10660;DHT22;5378;53.206;13.316;2022-09-09T09:14:43;29.00;99.90
10660;DHT22;5378;53.206;13.316;2022-09-09T09:17:32;28.00;99.90
10660;DHT22;5378;53.206;13.316;2022-09-09T09:20:32;28.00;99.90
10660;DHT22;5378;53.206;13.316;2022-09-09T09:23:24;27.20;99.90
10660;DHT22;5378;53.206;13.316;2022-09-09T09:26:15;26.80;99.90
10660;DHT22;5378;53.206;13.316;2022-09-09T09:29:12;27.10;99.90
10660;DHT22;5378;53.206;13.316;2022-09-09T09:32:02;27.30;99.90
10660;DHT22;5378;53.206;13.316;2022-09-09T09:34:51;27.00;99.90
10660;DHT22;5378;53.206;13.316;2022-09-09T09:37:42;26.30;99.90
10660;DHT22;5378;53.206;13.316;2022-09-09T09:40:54;26.20;99.90
10660;DHT22;5378;53.206;13.316;2022-09-09T09:43:53;25.60;99.90
10660;DHT22;5378;53.206;13.316;2022-09-09T09:46:41;25.00;99.90
10660;DHT22;5378;53.206;13.316;2022-09-09T09:49:31;24.60;99.90
10660;DHT22;5378;53.206;13.316;2022-09-09T09:52:22;24.20;99.90
10660;DHT22;5378;53.206;13.316;2022-09-09T09:55:13;23.90;99.90
10660;DHT22;5378;53.206;13.316;2022-09-09T09:58:06;23.60;99.90
10660;DHT22;5378;53.206;13.316;2022-09-09T10:00:57;23.30;99.90
10660;DHT22;5378;53.206;13.316;2022-09-09T10:03:51;23.10;99.90
10660;DHT22;5378;53.206;13.316;2022-09-09T10:06:38;23.00;99.90
10660;DHT22;5378;53.206;13.316;2022-09-09T10:09:28;22.70;99.90
10660;DHT22;5378;53.206;13.316;2022-09-09T10:12:27;22.40;99.90
10660;DHT22;5378;53.206;13.316;2022-09-09T10:15:33;22.20;99.90
10660;DHT22;5378;53.206;13.316;2022-09-09T10:18:39;22.10;99.90
10660;DHT22;5378;53.206;13.316;2022-09-09T10:21:50;22.00;99.90
10660;DHT22;5378;53.206;13.316;2022-09-09T10:25:03;22.00;99.90
10660;DHT22;5378;53.206;13.316;2022-09-09T10:28:07;22.00;99.90
10660;DHT22;5378;53.206;13.316;2022-09-09T10:31:08;22.10;99.90
10660;DHT22;5378;53.206;13.316;2022-09-09T10:34:02;22.30;99.90
10660;DHT22;5378;53.206;13.316;2022-09-09T10:36:53;22.40;99.90
10660;DHT22;5378;53.206;13.316;2022-09-09T10:39:40;25.10;99.90
10660;DHT22;5378;53.206;13.316;2022-09-09T10:42:30;22.80;99.90
10660;DHT22;5378;53.206;13.316;2022-09-09T10:45:21;23.00;99.90
10660;DHT22;5378;53.206;13.316;2022-09-09T10:48:21;23.30;99.90
10660;DHT22;5378;53.206;13.316;2022-09-09T10:51:22;23.50;99.90
10660;DHT22;5378;53.206;13.316;2022-09-09T10:54:25;23.80;99.90
10660;DHT22;5378;53.206;13.316;2022-09-09T10:57:24;23.70;99.90
10660;DHT22;5378;53.206;13.316;2022-09-09T11:00:17;23.70;99.90
10660;DHT22;5378;53.206;13.316;2022-09-09T11:03:05;23.80;99.90
10660;DHT22;5378;53.206;13.316;2022-09-09T11:05:59;23.80;99.90
10660;DHT22;5378;53.206;13.316;2022-09-09T11:08:47;23.80;99.90
10660;DHT22;5378;53.206;13.316;2022-09-09T11:11:42;23.80;99.90
10660;DHT22;5378;53.206;13.316;2022-09-09T11:14:34;23.70;99.90
10660;DHT22;5378;53.206;13.316;2022-09-09T11:17:27;23.60;99.90
10660;DHT22;5378;53.206;13.316;2022-09-09T11:20:16;23.40;99.90
10660;DHT22;5378;53.206;13.316;2022-09-09T11:23:11;23.30;99.90
10660;DHT22;5378;53.206;13.316;2022-09-09T11:26:01;23.40;99.90
10660;DHT22;5378;53.206;13.316;2022-09-09T11:28:58;23.60;99.90
10660;DHT22;5378;53.206;13.316;2022-09-09T11:32:00;23.80;99.90
10660;DHT22;5378;53.206;13.316;2022-09-09T11:34:54;23.80;99.90
10660;DHT22;5378;53.206;13.316;2022-09-09T11:38:11;23.70;99.90
10660;DHT22;5378;53.206;13.316;2022-09-09T11:41:03;23.50;99.90
10660;DHT22;5378;53.206;13.316;2022-09-09T11:43:53;23.30;99.90
10660;DHT22;5378;53.206;13.316;2022-09-09T11:46:41;22.80;99.90
10660;DHT22;5378;53.206;13.316;2022-09-09T11:49:29;24.30;99.90
10660;DHT22;5378;53.206;13.316;2022-09-09T11:52:22;23.10;99.90
10660;DHT22;5378;53.206;13.316;2022-09-09T11:55:26;23.20;99.90
10660;DHT22;5378;53.206;13.316;2022-09-09T11:58:17;23.30;99.90
10660;DHT22;5378;53.206;13.316;2022-09-09T12:01:27;23.30;99.90
10660;DHT22;5378;53.206;13.316;2022-09-09T12:04:32;23.10;99.90
10660;DHT22;5378;53.206;13.316;2022-09-09T12:07:26;22.90;99.90
10660;DHT22;5378;53.206;13.316;2022-09-09T12:10:23;22.80;99.90
10660;DHT22;5378;53.206;13.316;2022-09-09T12:13:16;22.80;99.90
10660;DHT22;5378;53.206;13.316;2022-09-09T12:16:04;22.90;99.90
10660;DHT22;5378;53.206;13.316;2022-09-09T12:18:52;23.00;99.90
10660;DHT22;5378;53.206;13.316;2022-09-09T12:21:54;23.20;99.90
10660;DHT22;5378;53.206;13.316;2022-09-09T12:24:49;23.40;99.90
10660;DHT22;5378;53.206;13.316;2022-09-09T12:27:46;23.50;99.90
10660;DHT22;5378;53.206;13.316;2022-09-09T12:30:44;23.50;99.90
10660;DHT22;5378;53.206;13.316;2022-09-09T12:33:37;23.50;99.90
10660;DHT22;5378;53.206;13.316;2022-09-09T12:36:29;23.40;99.90
10660;DHT22;5378;53.206;13.316;2022-09-09T12:39:30;23.20;99.90
10660;DHT22;5378;53.206;13.316;2022-09-09T12:42:19;23.10;99.90
10660;DHT22;5378;53.206;13.316;2022-09-09T12:45:17;23.00;99.90
10660;DHT22;5378;53.206;13.316;2022-09-09T12:48:07;22.90;99.90
10660;DHT22;5378;53.206;13.316;2022-09-09T12:50:54;22.80;99.90
10660;DHT22;5378;53.206;13.316;2022-09-09T12:53:44;22.90;99.90
10660;DHT22;5378;53.206;13.316;2022-09-09T12:56:33;22.90;99.90
10660;DHT22;5378;53.206;13.316;2022-09-09T12:59:24;23.10;99.90
10660;DHT22;5378;53.206;13.316;2022-09-09T13:02:20;23.20;99.90
10660;DHT22;5378;53.206;13.316;2022-09-09T13:05:15;23.40;99.90
10660;DHT22;5378;53.206;13.316;2022-09-09T13:08:04;23.60;99.90
10660;DHT22;5378;53.206;13.316;2022-09-09T13:10:55;23.60;99.90
10660;DHT22;5378;53.206;13.316;2022-09-09T13:13:51;23.60;99.90
10660;DHT22;5378;53.206;13.316;2022-09-09T13:16:39;23.80;99.90
10660;DHT22;5378;53.206;13.316;2022-09-09T13:19:32;24.00;99.90
10660;DHT22;5378;53.206;13.316;2022-09-09T13:22:22;24.20;99.90
10660;DHT22;5378;53.206;13.316;2022-09-09T13:25:20;24.30;99.90
10660;DHT22;5378;53.206;13.316;2022-09-09T13:28:20;24.40;99.90
10660;DHT22;5378;53.206;13.316;2022-09-09T13:31:20;24.40;99.90
10660;DHT22;5378;53.206;13.316;2022-09-09T13:34:12;24.20;99.90
10660;DHT22;5378;53.206;13.316;2022-09-09T13:37:02;24.00;99.90
10660;DHT22;5378;53.206;13.316;2022-09-09T13:39:52;23.80;99.90
10660;DHT22;5378;53.206;13.316;2022-09-09T13:42:41;23.80;99.90
10660;DHT22;5378;53.206;13.316;2022-09-09T13:45:29;23.90;99.90
10660;DHT22;5378;53.206;13.316;2022-09-09T13:48:18;24.00;99.90
10660;DHT22;5378;53.206;13.316;2022-09-09T13:51:23;24.10;99.90
10660;DHT22;5378;53.206;13.316;2022-09-09T13:54:16;24.10;99.90
10660;DHT22;5378;53.206;13.316;2022-09-09T13:57:04;24.00;99.90
10660;DHT22;5378;53.206;13.316;2022-09-09T13:59:53;23.90;99.90
10660;DHT22;5378;53.206;13.316;2022-09-09T14:02:55;23.80;99.90
10660;DHT22;5378;53.206;13.316;2022-09-09T14:05:44;23.60;99.90
10660;DHT22;5378;53.206;13.316;2022-09-09T14:08:31;23.50;99.90
10660;DHT22;5378;53.206;13.316;2022-09-09T14:11:24;23.50;99.90
10660;DHT22;5378;53.206;13.316;2022-09-09T14:14:11;23.40;99.90
10660;DHT22;5378;53.206;13.316;2022-09-09T14:16:58;23.30;99.90
10660;DHT22;5378;53.206;13.316;2022-09-09T14:19:45;23.30;99.90
10660;DHT22;5378;53.206;13.316;2022-09-09T14:22:33;23.30;99.90
10660;DHT22;5378;53.206;13.316;2022-09-09T14:25:20;23.30;99.90
10660;DHT22;5378;53.206;13.316;2022-09-09T14:28:10;23.30;99.90
10660;DHT22;5378;53.206;13.316;2022-09-09T14:30:59;23.40;99.90
10660;DHT22;5378;53.206;13.316;2022-09-09T14:33:47;23.40;99.90
10660;DHT22;5378;53.206;13.316;2022-09-09T14:36:34;23.60;99.90
10660;DHT22;5378;53.206;13.316;2022-09-09T14:39:21;23.80;99.90
10660;DHT22;5378;53.206;13.316;2022-09-09T14:42:09;24.00;99.90
10660;DHT22;5378;53.206;13.316;2022-09-09T14:44:58;23.80;99.90
10660;DHT22;5378;53.206;13.316;2022-09-09T14:47:45;23.70;99.90
10660;DHT22;5378;53.206;13.316;2022-09-09T14:50:32;23.40;99.90
10660;DHT22;5378;53.206;13.316;2022-09-09T14:53:20;23.30;99.90
10660;DHT22;5378;53.206;13.316;2022-09-09T14:56:09;23.10;99.90
10660;DHT22;5378;53.206;13.316;2022-09-09T14:58:58;23.00;99.90
10660;DHT22;5378;53.206;13.316;2022-09-09T15:01:47;22.90;99.90
10660;DHT22;5378;53.206;13.316;2022-09-09T15:04:34;22.90;99.90
10660;DHT22;5378;53.206;13.316;2022-09-09T15:07:22;22.90;99.90
10660;DHT22;5378;53.206;13.316;2022-09-09T15:10:09;22.90;99.90
10660;DHT22;5378;53.206;13.316;2022-09-09T15:12:57;22.90;99.90
10660;DHT22;5378;53.206;13.316;2022-09-09T15:15:44;22.90;99.90
10660;DHT22;5378;53.206;13.316;2022-09-09T15:18:33;22.90;99.90
10660;DHT22;5378;53.206;13.316;2022-09-09T15:21:23;22.90;99.90
10660;DHT22;5378;53.206;13.316;2022-09-09T15:24:11;22.80;99.90
10660;DHT22;5378;53.206;13.316;2022-09-09T15:26:59;22.70;99.90
10660;DHT22;5378;53.206;13.316;2022-09-09T15:29:46;22.70;99.90
10660;DHT22;5378;53.206;13.316;2022-09-09T15:32:33;22.60;99.90
10660;DHT22;5378;53.206;13.316;2022-09-09T15:35:22;22.50;99.90
10660;DHT22;5378;53.206;13.316;2022-09-09T15:38:09;22.50;99.90
10660;DHT22;5378;53.206;13.316;2022-09-09T15:40:56;22.40;99.90
10660;DHT22;5378;53.206;13.316;2022-09-09T15:43:44;22.30;99.90
10660;DHT22;5378;53.206;13.316;2022-09-09T15:46:33;22.20;99.90
10660;DHT22;5378;53.206;13.316;2022-09-09T15:49:24;22.20;99.90
10660;DHT22;5378;53.206;13.316;2022-09-09T15:52:13;22.20;99.90
10660;DHT22;5378;53.206;13.316;2022-09-09T15:55:00;22.10;99.90
10660;DHT22;5378;53.206;13.316;2022-09-09T15:57:47;19.60;99.90
10660;DHT22;5378;53.206;13.316;2022-09-09T16:00:35;22.00;99.90
10660;DHT22;5378;53.206;13.316;2022-09-09T16:03:23;22.00;99.90
10660;DHT22;5378;53.206;13.316;2022-09-09T16:06:10;21.90;99.90
10660;DHT22;5378;53.206;13.316;2022-09-09T16:08:59;21.80;99.90
10660;DHT22;5378;53.206;13.316;2022-09-09T16:11:47;21.70;99.90
10660;DHT22;5378;53.206;13.316;2022-09-09T16:14:34;21.70;99.90
10660;DHT22;5378;53.206;13.316;2022-09-09T16:17:22;21.60;99.90
10660;DHT22;5378;53.206;13.316;2022-09-09T16:20:09;21.40;99.90
10660;DHT22;5378;53.206;13.316;2022-09-09T16:22:57;21.40;99.90
10660;DHT22;5378;53.206;13.316;2022-09-09T16:25:54;21.30;99.90
10660;DHT22;5378;53.206;13.316;2022-09-09T16:28:42;21.30;99.90
10660;DHT22;5378;53.206;13.316;2022-09-09T16:31:30;21.30;99.90
10660;DHT22;5378;53.206;13.316;2022-09-09T16:34:18;21.20;99.90
10660;DHT22;5378;53.206;13.316;2022-09-09T16:37:05;21.20;99.90
10660;DHT22;5378;53.206;13.316;2022-09-09T16:39:52;21.10;99.90
10660;DHT22;5378;53.206;13.316;2022-09-09T16:42:41;21.00;99.90
10660;DHT22;5378;53.206;13.316;2022-09-09T16:45:28;20.90;99.90
10660;DHT22;5378;53.206;13.316;2022-09-09T16:48:16;20.90;99.90
10660;DHT22;5378;53.206;13.316;2022-09-09T16:51:04;20.80;99.90
10660;DHT22;5378;53.206;13.316;2022-09-09T16:53:52;20.70;99.90
10660;DHT22;5378;53.206;13.316;2022-09-09T16:56:41;20.60;99.90
10660;DHT22;5378;53.206;13.316;2022-09-09T16:59:30;20.50;99.90
10660;DHT22;5378;53.206;13.316;2022-09-09T17:02:17;20.30;99.90
10660;DHT22;5378;53.206;13.316;2022-09-09T17:05:05;20.20;99.90
10660;DHT22;5378;53.206;13.316;2022-09-09T17:07:53;20.20;99.90
10660;DHT22;5378;53.206;13.316;2022-09-09T17:10:42;20.10;99.90
10660;DHT22;5378;53.206;13.316;2022-09-09T17:13:29;19.90;99.90
10660;DHT22;5378;53.206;13.316;2022-09-09T17:16:19;19.80;99.90
10660;DHT22;5378;53.206;13.316;2022-09-09T17:19:08;19.70;99.90
10660;DHT22;5378;53.206;13.316;2022-09-09T17:21:55;19.60;99.90
10660;DHT22;5378;53.206;13.316;2022-09-09T17:25:00;19.50;99.90
10660;DHT22;5378;53.206;13.316;2022-09-09T17:27:47;19.50;99.90
10660;DHT22;5378;53.206;13.316;2022-09-09T17:30:34;19.40;99.90
10660;DHT22;5378;53.206;13.316;2022-09-09T17:33:23;19.30;99.90
10660;DHT22;5378;53.206;13.316;2022-09-09T17:36:14;19.20;99.90
10660;DHT22;5378;53.206;13.316;2022-09-09T17:39:03;19.10;99.90
10660;DHT22;5378;53.206;13.316;2022-09-09T17:41:51;19.10;99.90
10660;DHT22;5378;53.206;13.316;2022-09-09T17:44:38;19.00;99.90
10660;DHT22;5378;53.206;13.316;2022-09-09T17:47:25;18.90;99.90
10660;DHT22;5378;53.206;13.316;2022-09-09T17:50:15;18.70;99.90
10660;DHT22;5378;53.206;13.316;2022-09-09T17:53:02;18.60;99.90
10660;DHT22;5378;53.206;13.316;2022-09-09T17:55:49;18.50;99.90
10660;DHT22;5378;53.206;13.316;2022-09-09T17:58:38;18.50;99.90
10660;DHT22;5378;53.206;13.316;2022-09-09T18:01:27;18.40;99.90
10660;DHT22;5378;53.206;13.316;2022-09-09T18:04:15;18.30;99.90